sensor_id;sensor_type;location;lat;lon;timestamp;P1;durP1;ratioP1;P2;durP2;ratioP2
52530;SDS011;38441;52.894;6.040;2023-06-24T00:01:27;7.22;;;4.50;;
52530;SDS011;38441;52.894;6.040;2023-06-24T00:03:53;7.32;;;5.03;;
52530;SDS011;38441;52.894;6.040;2023-06-24T00:06:19;8.15;;;4.57;;
52530;SDS011;38441;52.894;6.040;2023-06-24T00:08:47;9.05;;;5.75;;
52530;SDS011;38441;52.894;6.040;2023-06-24T00:11:13;7.32;;;4.57;;
52530;SDS011;38441;52.894;6.040;2023-06-24T00:13:40;8.63;;;5.05;;
52530;SDS011;38441;52.894;6.040;2023-06-24T00:16:06;8.75;;;4.93;;
52530;SDS011;38441;52.894;6.040;2023-06-24T00:18:32;8.98;;;5.15;;
52530;SDS011;38441;52.894;6.040;2023-06-24T00:20:58;8.20;;;5.63;;
52530;SDS011;38441;52.894;6.040;2023-06-24T00:23:26;8.98;;;5.68;;
52530;SDS011;38441;52.894;6.040;2023-06-24T00:25:53;7.43;;;4.80;;
52530;SDS011;38441;52.894;6.040;2023-06-24T00:28:20;6.63;;;4.78;;
52530;SDS011;38441;52.894;6.040;2023-06-24T00:30:46;6.80;;;5.03;;
52530;SDS011;38441;52.894;6.040;2023-06-24T00:33:12;7.35;;;5.30;;
52530;SDS011;38441;52.894;6.040;2023-06-24T00:35:41;8.40;;;5.07;;
52530;SDS011;38441;52.894;6.040;2023-06-24T00:38:08;8.82;;;5.55;;
52530;SDS011;38441;52.894;6.040;2023-06-24T00:40:34;7.05;;;5.40;;
52530;SDS011;38441;52.894;6.040;2023-06-24T00:43:00;7.47;;;5.07;;
52530;SDS011;38441;52.894;6.040;2023-06-24T00:45:27;7.85;;;5.63;;
52530;SDS011;38441;52.894;6.040;2023-06-24T00:47:55;7.68;;;4.90;;
52530;SDS011;38441;52.894;6.040;2023-06-24T00:50:21;12.05;;;5.78;;
52530;SDS011;38441;52.894;6.040;2023-06-24T00:52:48;9.07;;;5.95;;
52530;SDS011;38441;52.894;6.040;2023-06-24T00:55:15;7.82;;;5.57;;
52530;SDS011;38441;52.894;6.040;2023-06-24T00:57:42;8.52;;;5.50;;
52530;SDS011;38441;52.894;6.040;2023-06-24T01:00:09;7.63;;;5.82;;
52530;SDS011;38441;52.894;6.040;2023-06-24T01:02:40;7.50;;;5.97;;
52530;SDS011;38441;52.894;6.040;2023-06-24T01:05:07;7.72;;;5.30;;
52530;SDS011;38441;52.894;6.040;2023-06-24T01:07:35;7.80;;;5.45;;
52530;SDS011;38441;52.894;6.040;2023-06-24T01:10:02;7.07;;;5.03;;
52530;SDS011;38441;52.894;6.040;2023-06-24T01:12:30;6.55;;;4.78;;
52530;SDS011;38441;52.894;6.040;2023-06-24T01:14:58;6.97;;;4.97;;
52530;SDS011;38441;52.894;6.040;2023-06-24T01:17:27;7.68;;;5.28;;
52530;SDS011;38441;52.894;6.040;2023-06-24T01:20:16;6.88;;;5.43;;
52530;SDS011;38441;52.894;6.040;2023-06-24T01:26:32;8.77;;;6.15;;
52530;SDS011;38441;52.894;6.040;2023-06-24T01:37:32;6.40;;;5.18;;
52530;SDS011;38441;52.894;6.040;2023-06-24T01:40:10;8.23;;;5.07;;
52530;SDS011;38441;52.894;6.040;2023-06-24T01:42:42;7.13;;;5.50;;
52530;SDS011;38441;52.894;6.040;2023-06-24T01:45:12;6.18;;;5.35;;
52530;SDS011;38441;52.894;6.040;2023-06-24T01:47:40;9.45;;;5.32;;
52530;SDS011;38441;52.894;6.040;2023-06-24T01:50:10;8.98;;;6.10;;
52530;SDS011;38441;52.894;6.040;2023-06-24T01:52:37;6.63;;;5.75;;
52530;SDS011;38441;52.894;6.040;2023-06-24T01:55:06;8.00;;;5.90;;
52530;SDS011;38441;52.894;6.040;2023-06-24T01:57:34;8.98;;;6.18;;
52530;SDS011;38441;52.894;6.040;2023-06-24T02:00:02;9.48;;;5.50;;
52530;SDS011;38441;52.894;6.040;2023-06-24T02:02:32;7.57;;;5.40;;
52530;SDS011;38441;52.894;6.040;2023-06-24T02:04:59;8.50;;;5.38;;
52530;SDS011;38441;52.894;6.040;2023-06-24T02:07:27;8.90;;;5.30;;
52530;SDS011;38441;52.894;6.040;2023-06-24T02:09:55;7.95;;;6.00;;
52530;SDS011;38441;52.894;6.040;2023-06-24T02:12:22;9.93;;;7.03;;
52530;SDS011;38441;52.894;6.040;2023-06-24T02:14:49;8.48;;;6.22;;
52530;SDS011;38441;52.894;6.040;2023-06-24T02:17:16;8.60;;;6.43;;
52530;SDS011;38441;52.894;6.040;2023-06-24T02:19:44;8.02;;;6.55;;
52530;SDS011;38441;52.894;6.040;2023-06-24T02:22:10;8.35;;;6.00;;
52530;SDS011;38441;52.894;6.040;2023-06-24T02:24:37;9.27;;;6.93;;
52530;SDS011;38441;52.894;6.040;2023-06-24T02:27:06;8.45;;;6.22;;
52530;SDS011;38441;52.894;6.040;2023-06-24T02:29:33;8.40;;;6.35;;
52530;SDS011;38441;52.894;6.040;2023-06-24T02:32:00;9.85;;;6.30;;
52530;SDS011;38441;52.894;6.040;2023-06-24T02:34:26;10.05;;;7.63;;
52530;SDS011;38441;52.894;6.040;2023-06-24T02:36:51;10.52;;;6.90;;
52530;SDS011;38441;52.894;6.040;2023-06-24T02:39:17;10.88;;;6.88;;
52530;SDS011;38441;52.894;6.040;2023-06-24T02:41:43;7.90;;;6.57;;
52530;SDS011;38441;52.894;6.040;2023-06-24T02:44:12;10.10;;;6.70;;
52530;SDS011;38441;52.894;6.040;2023-06-24T02:46:38;11.73;;;7.60;;
52530;SDS011;38441;52.894;6.040;2023-06-24T02:49:05;9.65;;;7.38;;
52530;SDS011;38441;52.894;6.040;2023-06-24T02:51:34;9.10;;;7.40;;
52530;SDS011;38441;52.894;6.040;2023-06-24T02:54:01;10.90;;;7.35;;
52530;SDS011;38441;52.894;6.040;2023-06-24T02:56:28;9.15;;;7.75;;
52530;SDS011;38441;52.894;6.040;2023-06-24T02:58:53;9.90;;;7.10;;
52530;SDS011;38441;52.894;6.040;2023-06-24T03:01:20;9.15;;;7.47;;
52530;SDS011;38441;52.894;6.040;2023-06-24T03:03:49;9.10;;;6.95;;
52530;SDS011;38441;52.894;6.040;2023-06-24T03:06:20;8.48;;;6.47;;
52530;SDS011;38441;52.894;6.040;2023-06-24T03:08:47;8.50;;;7.15;;
52530;SDS011;38441;52.894;6.040;2023-06-24T03:11:14;10.73;;;7.18;;
52530;SDS011;38441;52.894;6.040;2023-06-24T03:13:40;10.07;;;7.60;;
52530;SDS011;38441;52.894;6.040;2023-06-24T03:16:06;11.15;;;7.22;;
52530;SDS011;38441;52.894;6.040;2023-06-24T03:18:37;9.33;;;7.43;;
52530;SDS011;38441;52.894;6.040;2023-06-24T03:21:04;10.35;;;7.72;;
52530;SDS011;38441;52.894;6.040;2023-06-24T03:23:32;10.65;;;7.47;;
52530;SDS011;38441;52.894;6.040;2023-06-24T03:25:58;10.07;;;7.55;;
52530;SDS011;38441;52.894;6.040;2023-06-24T03:28:23;10.55;;;8.13;;
52530;SDS011;38441;52.894;6.040;2023-06-24T03:30:49;11.75;;;8.20;;
52530;SDS011;38441;52.894;6.040;2023-06-24T03:33:14;14.18;;;7.68;;
52530;SDS011;38441;52.894;6.040;2023-06-24T03:35:42;9.43;;;7.20;;
52530;SDS011;38441;52.894;6.040;2023-06-24T03:38:08;11.80;;;7.60;;
52530;SDS011;38441;52.894;6.040;2023-06-24T03:40:33;11.70;;;7.60;;
52530;SDS011;38441;52.894;6.040;2023-06-24T03:42:59;9.63;;;7.72;;
52530;SDS011;38441;52.894;6.040;2023-06-24T03:45:25;11.07;;;8.13;;
52530;SDS011;38441;52.894;6.040;2023-06-24T03:47:50;10.85;;;7.85;;
52530;SDS011;38441;52.894;6.040;2023-06-24T03:50:16;9.45;;;7.97;;
52530;SDS011;38441;52.894;6.040;2023-06-24T03:52:42;12.70;;;8.30;;
52530;SDS011;38441;52.894;6.040;2023-06-24T03:55:09;11.05;;;8.60;;
52530;SDS011;38441;52.894;6.040;2023-06-24T03:57:36;11.80;;;8.30;;
52530;SDS011;38441;52.894;6.040;2023-06-24T04:00:02;10.52;;;7.75;;
52530;SDS011;38441;52.894;6.040;2023-06-24T04:02:40;11.45;;;8.30;;
52530;SDS011;38441;52.894;6.040;2023-06-24T04:05:07;11.57;;;8.68;;
52530;SDS011;38441;52.894;6.040;2023-06-24T04:07:33;13.30;;;8.38;;
52530;SDS011;38441;52.894;6.040;2023-06-24T04:10:01;11.77;;;8.38;;
52530;SDS011;38441;52.894;6.040;2023-06-24T04:12:28;12.75;;;8.48;;
52530;SDS011;38441;52.894;6.040;2023-06-24T04:14:54;10.50;;;8.18;;
52530;SDS011;38441;52.894;6.040;2023-06-24T04:17:20;11.45;;;8.52;;
52530;SDS011;38441;52.894;6.040;2023-06-24T04:19:45;11.77;;;8.93;;
52530;SDS011;38441;52.894;6.040;2023-06-24T04:22:11;11.70;;;9.10;;
52530;SDS011;38441;52.894;6.040;2023-06-24T04:24:36;12.18;;;8.95;;
52530;SDS011;38441;52.894;6.040;2023-06-24T04:27:02;14.82;;;9.18;;
52530;SDS011;38441;52.894;6.040;2023-06-24T04:29:28;15.38;;;10.45;;
52530;SDS011;38441;52.894;6.040;2023-06-24T04:31:53;14.50;;;10.13;;
52530;SDS011;38441;52.894;6.040;2023-06-24T04:34:19;15.30;;;10.07;;
52530;SDS011;38441;52.894;6.040;2023-06-24T04:36:45;13.68;;;9.60;;
52530;SDS011;38441;52.894;6.040;2023-06-24T04:39:10;12.95;;;9.75;;
52530;SDS011;38441;52.894;6.040;2023-06-24T04:41:36;12.10;;;9.70;;
52530;SDS011;38441;52.894;6.040;2023-06-24T04:44:01;12.18;;;9.95;;
52530;SDS011;38441;52.894;6.040;2023-06-24T04:46:27;13.93;;;9.98;;
52530;SDS011;38441;52.894;6.040;2023-06-24T04:48:53;14.63;;;10.07;;
52530;SDS011;38441;52.894;6.040;2023-06-24T04:51:18;12.18;;;10.10;;
52530;SDS011;38441;52.894;6.040;2023-06-24T04:53:44;13.57;;;10.20;;
52530;SDS011;38441;52.894;6.040;2023-06-24T04:56:09;12.98;;;9.98;;
52530;SDS011;38441;52.894;6.040;2023-06-24T04:58:35;13.80;;;9.90;;
52530;SDS011;38441;52.894;6.040;2023-06-24T05:01:00;15.23;;;10.23;;
52530;SDS011;38441;52.894;6.040;2023-06-24T05:03:26;15.75;;;10.20;;
52530;SDS011;38441;52.894;6.040;2023-06-24T05:05:52;13.63;;;10.73;;
52530;SDS011;38441;52.894;6.040;2023-06-24T05:08:17;13.45;;;10.15;;
52530;SDS011;38441;52.894;6.040;2023-06-24T05:10:43;13.50;;;9.93;;
52530;SDS011;38441;52.894;6.040;2023-06-24T05:13:09;13.35;;;10.18;;
52530;SDS011;38441;52.894;6.040;2023-06-24T05:15:34;15.57;;;10.73;;
52530;SDS011;38441;52.894;6.040;2023-06-24T05:18:00;13.40;;;9.98;;
52530;SDS011;38441;52.894;6.040;2023-06-24T05:20:25;14.40;;;11.07;;
52530;SDS011;38441;52.894;6.040;2023-06-24T05:22:51;12.15;;;10.23;;
52530;SDS011;38441;52.894;6.040;2023-06-24T05:25:16;15.70;;;10.52;;
52530;SDS011;38441;52.894;6.040;2023-06-24T05:27:42;14.18;;;10.73;;
52530;SDS011;38441;52.894;6.040;2023-06-24T05:30:09;14.35;;;10.50;;
52530;SDS011;38441;52.894;6.040;2023-06-24T05:32:35;15.52;;;11.23;;
52530;SDS011;38441;52.894;6.040;2023-06-24T05:35:01;15.70;;;10.90;;
52530;SDS011;38441;52.894;6.040;2023-06-24T05:37:27;12.75;;;10.23;;
52530;SDS011;38441;52.894;6.040;2023-06-24T05:39:52;13.60;;;10.23;;
52530;SDS011;38441;52.894;6.040;2023-06-24T05:42:18;17.73;;;11.18;;
52530;SDS011;38441;52.894;6.040;2023-06-24T05:44:43;13.13;;;10.40;;
52530;SDS011;38441;52.894;6.040;2023-06-24T05:47:09;13.90;;;10.00;;
52530;SDS011;38441;52.894;6.040;2023-06-24T05:49:35;17.15;;;10.82;;
52530;SDS011;38441;52.894;6.040;2023-06-24T05:52:00;15.35;;;10.32;;
52530;SDS011;38441;52.894;6.040;2023-06-24T05:54:27;14.15;;;10.95;;
52530;SDS011;38441;52.894;6.040;2023-06-24T05:56:52;15.13;;;9.88;;
52530;SDS011;38441;52.894;6.040;2023-06-24T05:59:18;13.15;;;10.18;;
52530;SDS011;38441;52.894;6.040;2023-06-24T06:01:43;14.98;;;10.63;;
52530;SDS011;38441;52.894;6.040;2023-06-24T06:04:09;16.38;;;9.95;;
52530;SDS011;38441;52.894;6.040;2023-06-24T06:06:34;15.57;;;10.48;;
52530;SDS011;38441;52.894;6.040;2023-06-24T06:09:00;13.13;;;9.85;;
52530;SDS011;38441;52.894;6.040;2023-06-24T06:11:26;12.30;;;9.05;;
52530;SDS011;38441;52.894;6.040;2023-06-24T06:13:51;13.07;;;9.27;;
52530;SDS011;38441;52.894;6.040;2023-06-24T06:16:17;11.15;;;8.98;;
52530;SDS011;38441;52.894;6.040;2023-06-24T06:18:43;13.60;;;9.13;;
52530;SDS011;38441;52.894;6.040;2023-06-24T06:21:08;13.27;;;8.90;;
52530;SDS011;38441;52.894;6.040;2023-06-24T06:23:34;11.65;;;9.13;;
52530;SDS011;38441;52.894;6.040;2023-06-24T06:26:00;10.50;;;8.23;;
52530;SDS011;38441;52.894;6.040;2023-06-24T06:28:25;12.40;;;8.82;;
52530;SDS011;38441;52.894;6.040;2023-06-24T06:30:51;12.98;;;8.52;;
52530;SDS011;38441;52.894;6.040;2023-06-24T06:33:17;11.55;;;8.35;;
52530;SDS011;38441;52.894;6.040;2023-06-24T06:35:42;11.55;;;8.23;;
52530;SDS011;38441;52.894;6.040;2023-06-24T06:38:08;9.95;;;7.85;;
52530;SDS011;38441;52.894;6.040;2023-06-24T06:40:33;12.45;;;8.63;;
52530;SDS011;38441;52.894;6.040;2023-06-24T06:43:00;11.07;;;8.35;;
52530;SDS011;38441;52.894;6.040;2023-06-24T06:45:25;10.10;;;7.63;;
52530;SDS011;38441;52.894;6.040;2023-06-24T06:47:51;13.65;;;8.20;;
52530;SDS011;38441;52.894;6.040;2023-06-24T06:50:17;13.70;;;7.43;;
52530;SDS011;38441;52.894;6.040;2023-06-24T06:52:42;11.07;;;7.53;;
52530;SDS011;38441;52.894;6.040;2023-06-24T06:55:09;10.50;;;6.97;;
52530;SDS011;38441;52.894;6.040;2023-06-24T06:57:34;8.50;;;5.45;;
52530;SDS011;38441;52.894;6.040;2023-06-24T07:00:00;7.88;;;4.85;;
52530;SDS011;38441;52.894;6.040;2023-06-24T07:02:26;7.65;;;5.55;;
52530;SDS011;38441;52.894;6.040;2023-06-24T07:04:51;10.30;;;5.28;;
52530;SDS011;38441;52.894;6.040;2023-06-24T07:07:17;9.43;;;5.50;;
52530;SDS011;38441;52.894;6.040;2023-06-24T07:09:43;7.20;;;4.78;;
52530;SDS011;38441;52.894;6.040;2023-06-24T07:12:09;7.78;;;4.18;;
52530;SDS011;38441;52.894;6.040;2023-06-24T07:14:34;5.43;;;3.70;;
52530;SDS011;38441;52.894;6.040;2023-06-24T07:17:00;6.30;;;3.17;;
52530;SDS011;38441;52.894;6.040;2023-06-24T07:19:26;5.88;;;3.20;;
52530;SDS011;38441;52.894;6.040;2023-06-24T07:21:51;5.43;;;3.20;;
52530;SDS011;38441;52.894;6.040;2023-06-24T07:24:17;7.05;;;3.40;;
52530;SDS011;38441;52.894;6.040;2023-06-24T07:26:43;6.25;;;3.30;;
52530;SDS011;38441;52.894;6.040;2023-06-24T07:29:08;5.20;;;3.65;;
52530;SDS011;38441;52.894;6.040;2023-06-24T07:31:34;5.30;;;3.78;;
52530;SDS011;38441;52.894;6.040;2023-06-24T07:34:01;7.47;;;4.32;;
52530;SDS011;38441;52.894;6.040;2023-06-24T07:36:26;4.80;;;3.58;;
52530;SDS011;38441;52.894;6.040;2023-06-24T07:38:52;7.80;;;4.15;;
52530;SDS011;38441;52.894;6.040;2023-06-24T07:41:18;6.63;;;3.72;;
52530;SDS011;38441;52.894;6.040;2023-06-24T07:43:43;5.45;;;3.20;;
52530;SDS011;38441;52.894;6.040;2023-06-24T07:46:09;6.45;;;3.05;;
52530;SDS011;38441;52.894;6.040;2023-06-24T07:48:34;9.02;;;3.50;;
52530;SDS011;38441;52.894;6.040;2023-06-24T07:51:00;5.30;;;3.35;;
52530;SDS011;38441;52.894;6.040;2023-06-24T07:53:26;7.05;;;3.15;;
52530;SDS011;38441;52.894;6.040;2023-06-24T07:55:51;8.18;;;3.92;;
52530;SDS011;38441;52.894;6.040;2023-06-24T07:58:17;6.85;;;4.32;;
52530;SDS011;38441;52.894;6.040;2023-06-24T08:00:44;6.35;;;3.60;;
52530;SDS011;38441;52.894;6.040;2023-06-24T08:03:11;5.90;;;3.67;;
52530;SDS011;38441;52.894;6.040;2023-06-24T08:05:37;7.10;;;4.20;;
52530;SDS011;38441;52.894;6.040;2023-06-24T08:08:04;5.28;;;3.95;;
52530;SDS011;38441;52.894;6.040;2023-06-24T08:10:30;7.47;;;4.53;;
52530;SDS011;38441;52.894;6.040;2023-06-24T08:12:56;8.40;;;4.32;;
52530;SDS011;38441;52.894;6.040;2023-06-24T08:15:21;7.70;;;4.32;;
52530;SDS011;38441;52.894;6.040;2023-06-24T08:17:53;8.30;;;5.40;;
52530;SDS011;38441;52.894;6.040;2023-06-24T08:20:24;9.20;;;4.68;;
52530;SDS011;38441;52.894;6.040;2023-06-24T08:22:50;7.90;;;5.18;;
52530;SDS011;38441;52.894;6.040;2023-06-24T08:25:16;8.50;;;4.53;;
52530;SDS011;38441;52.894;6.040;2023-06-24T08:27:41;8.57;;;4.78;;
52530;SDS011;38441;52.894;6.040;2023-06-24T08:30:11;7.90;;;4.90;;
52530;SDS011;38441;52.894;6.040;2023-06-24T08:32:39;11.32;;;5.00;;
52530;SDS011;38441;52.894;6.040;2023-06-24T08:35:06;9.07;;;5.05;;
52530;SDS011;38441;52.894;6.040;2023-06-24T08:37:33;6.22;;;4.18;;
52530;SDS011;38441;52.894;6.040;2023-06-24T08:40:09;5.75;;;4.15;;
52530;SDS011;38441;52.894;6.040;2023-06-24T08:42:35;7.50;;;3.90;;
52530;SDS011;38441;52.894;6.040;2023-06-24T08:45:01;6.88;;;4.00;;
52530;SDS011;38441;52.894;6.040;2023-06-24T08:47:30;7.63;;;4.25;;
52530;SDS011;38441;52.894;6.040;2023-06-24T08:50:01;5.90;;;3.78;;
52530;SDS011;38441;52.894;6.040;2023-06-24T08:52:35;5.38;;;3.58;;
52530;SDS011;38441;52.894;6.040;2023-06-24T08:55:03;7.22;;;4.43;;
52530;SDS011;38441;52.894;6.040;2023-06-24T09:00:17;7.00;;;3.85;;
52530;SDS011;38441;52.894;6.040;2023-06-24T09:02:49;6.65;;;3.50;;
52530;SDS011;38441;52.894;6.040;2023-06-24T09:05:20;6.68;;;3.60;;
52530;SDS011;38441;52.894;6.040;2023-06-24T09:07:55;6.22;;;3.65;;
52530;SDS011;38441;52.894;6.040;2023-06-24T09:10:31;6.32;;;3.83;;
52530;SDS011;38441;52.894;6.040;2023-06-24T09:15:39;10.65;;;3.50;;
52530;SDS011;38441;52.894;6.040;2023-06-24T09:18:11;7.22;;;3.75;;
52530;SDS011;38441;52.894;6.040;2023-06-24T09:20:37;9.15;;;3.10;;
52530;SDS011;38441;52.894;6.040;2023-06-24T09:23:09;7.55;;;4.00;;
52530;SDS011;38441;52.894;6.040;2023-06-24T09:25:35;8.98;;;3.80;;
52530;SDS011;38441;52.894;6.040;2023-06-24T09:28:04;6.32;;;4.15;;
52530;SDS011;38441;52.894;6.040;2023-06-24T09:30:33;6.80;;;3.83;;
52530;SDS011;38441;52.894;6.040;2023-06-24T09:32:58;7.25;;;4.20;;
52530;SDS011;38441;52.894;6.040;2023-06-24T09:35:24;5.10;;;3.45;;
52530;SDS011;38441;52.894;6.040;2023-06-24T09:37:57;7.13;;;4.18;;
52530;SDS011;38441;52.894;6.040;2023-06-24T09:40:25;6.10;;;4.00;;
52530;SDS011;38441;52.894;6.040;2023-06-24T09:42:55;7.50;;;3.75;;
52530;SDS011;38441;52.894;6.040;2023-06-24T09:45:26;6.60;;;4.20;;
52530;SDS011;38441;52.894;6.040;2023-06-24T09:47:54;7.10;;;4.05;;
52530;SDS011;38441;52.894;6.040;2023-06-24T09:50:23;7.82;;;4.78;;
52530;SDS011;38441;52.894;6.040;2023-06-24T09:52:55;8.25;;;4.32;;
52530;SDS011;38441;52.894;6.040;2023-06-24T09:55:22;10.38;;;4.68;;
52530;SDS011;38441;52.894;6.040;2023-06-24T09:57:50;7.20;;;4.25;;
52530;SDS011;38441;52.894;6.040;2023-06-24T10:00:34;6.60;;;3.65;;
52530;SDS011;38441;52.894;6.040;2023-06-24T10:02:59;7.43;;;3.55;;
52530;SDS011;38441;52.894;6.040;2023-06-24T10:05:25;7.07;;;3.90;;
52530;SDS011;38441;52.894;6.040;2023-06-24T10:07:53;8.20;;;3.97;;
52530;SDS011;38441;52.894;6.040;2023-06-24T10:10:19;7.30;;;4.03;;
52530;SDS011;38441;52.894;6.040;2023-06-24T10:12:45;6.65;;;3.60;;
52530;SDS011;38441;52.894;6.040;2023-06-24T10:15:11;5.72;;;3.90;;
52530;SDS011;38441;52.894;6.040;2023-06-24T10:17:37;5.70;;;3.80;;
52530;SDS011;38441;52.894;6.040;2023-06-24T10:20:03;7.03;;;3.55;;
52530;SDS011;38441;52.894;6.040;2023-06-24T10:22:31;5.97;;;3.70;;
52530;SDS011;38441;52.894;6.040;2023-06-24T10:24:59;5.47;;;2.80;;
52530;SDS011;38441;52.894;6.040;2023-06-24T10:30:19;5.80;;;3.05;;
52530;SDS011;38441;52.894;6.040;2023-06-24T10:32:57;7.07;;;4.10;;
52530;SDS011;38441;52.894;6.040;2023-06-24T10:37:58;7.18;;;3.05;;
52530;SDS011;38441;52.894;6.040;2023-06-24T10:40:37;9.00;;;3.85;;
52530;SDS011;38441;52.894;6.040;2023-06-24T10:50:55;7.50;;;2.72;;
52530;SDS011;38441;52.894;6.040;2023-06-24T10:56:20;6.10;;;2.90;;
52530;SDS011;38441;52.894;6.040;2023-06-24T10:58:54;6.38;;;2.80;;
52530;SDS011;38441;52.894;6.040;2023-06-24T11:01:21;7.82;;;2.83;;
52530;SDS011;38441;52.894;6.040;2023-06-24T11:06:35;6.53;;;3.30;;
52530;SDS011;38441;52.894;6.040;2023-06-24T11:09:02;4.82;;;2.83;;
52530;SDS011;38441;52.894;6.040;2023-06-24T11:11:28;7.30;;;3.00;;
52530;SDS011;38441;52.894;6.040;2023-06-24T11:16:43;4.35;;;2.60;;
52530;SDS011;38441;52.894;6.040;2023-06-24T11:24:21;4.72;;;2.88;;
52530;SDS011;38441;52.894;6.040;2023-06-24T11:26:47;4.53;;;3.00;;
52530;SDS011;38441;52.894;6.040;2023-06-24T11:29:12;10.40;;;3.10;;
52530;SDS011;38441;52.894;6.040;2023-06-24T11:31:38;7.57;;;3.08;;
52530;SDS011;38441;52.894;6.040;2023-06-24T11:34:04;5.40;;;2.63;;
52530;SDS011;38441;52.894;6.040;2023-06-24T11:41:40;5.78;;;2.40;;
52530;SDS011;38441;52.894;6.040;2023-06-24T11:44:06;4.05;;;2.55;;
52530;SDS011;38441;52.894;6.040;2023-06-24T11:46:32;7.53;;;2.78;;
52530;SDS011;38441;52.894;6.040;2023-06-24T11:49:08;4.47;;;2.05;;
52530;SDS011;38441;52.894;6.040;2023-06-24T11:51:36;4.07;;;3.08;;
52530;SDS011;38441;52.894;6.040;2023-06-24T11:54:03;4.28;;;2.50;;
52530;SDS011;38441;52.894;6.040;2023-06-24T11:56:38;4.28;;;2.42;;
52530;SDS011;38441;52.894;6.040;2023-06-24T11:59:15;3.50;;;2.00;;
52530;SDS011;38441;52.894;6.040;2023-06-24T12:02:24;4.13;;;2.17;;
52530;SDS011;38441;52.894;6.040;2023-06-24T12:06:11;4.20;;;2.45;;
52530;SDS011;38441;52.894;6.040;2023-06-24T12:09:12;6.57;;;2.50;;
52530;SDS011;38441;52.894;6.040;2023-06-24T12:11:38;3.35;;;1.85;;
52530;SDS011;38441;52.894;6.040;2023-06-24T12:22:09;3.67;;;2.25;;
52530;SDS011;38441;52.894;6.040;2023-06-24T12:28:10;4.55;;;2.45;;
52530;SDS011;38441;52.894;6.040;2023-06-24T12:30:44;4.72;;;2.60;;
52530;SDS011;38441;52.894;6.040;2023-06-24T12:33:13;3.78;;;2.03;;
52530;SDS011;38441;52.894;6.040;2023-06-24T12:38:39;4.43;;;2.53;;
52530;SDS011;38441;52.894;6.040;2023-06-24T12:41:55;4.85;;;2.78;;
52530;SDS011;38441;52.894;6.040;2023-06-24T12:47:10;6.65;;;3.08;;
52530;SDS011;38441;52.894;6.040;2023-06-24T12:49:47;6.25;;;2.60;;
52530;SDS011;38441;52.894;6.040;2023-06-24T12:52:13;4.97;;;2.65;;
52530;SDS011;38441;52.894;6.040;2023-06-24T12:54:40;4.25;;;2.97;;
52530;SDS011;38441;52.894;6.040;2023-06-24T12:57:05;6.32;;;2.83;;
52530;SDS011;38441;52.894;6.040;2023-06-24T12:59:31;4.82;;;2.70;;
52530;SDS011;38441;52.894;6.040;2023-06-24T13:01:57;7.07;;;2.50;;
52530;SDS011;38441;52.894;6.040;2023-06-24T13:14:46;5.57;;;2.55;;
52530;SDS011;38441;52.894;6.040;2023-06-24T13:17:12;5.75;;;2.58;;
52530;SDS011;38441;52.894;6.040;2023-06-24T13:19:38;5.35;;;2.60;;
52530;SDS011;38441;52.894;6.040;2023-06-24T13:22:14;4.75;;;2.80;;
52530;SDS011;38441;52.894;6.040;2023-06-24T13:25:11;5.43;;;2.88;;
52530;SDS011;38441;52.894;6.040;2023-06-24T13:27:39;5.85;;;2.85;;
52530;SDS011;38441;52.894;6.040;2023-06-24T13:30:08;8.70;;;3.03;;
52530;SDS011;38441;52.894;6.040;2023-06-24T13:36:11;6.88;;;3.20;;
52530;SDS011;38441;52.894;6.040;2023-06-24T13:39:29;6.38;;;3.35;;
52530;SDS011;38441;52.894;6.040;2023-06-24T13:42:13;4.25;;;3.15;;
52530;SDS011;38441;52.894;6.040;2023-06-24T13:44:46;5.43;;;3.08;;
52530;SDS011;38441;52.894;6.040;2023-06-24T13:47:34;6.10;;;3.05;;
52530;SDS011;38441;52.894;6.040;2023-06-24T13:50:04;8.13;;;3.53;;
52530;SDS011;38441;52.894;6.040;2023-06-24T13:52:31;7.22;;;2.65;;
52530;SDS011;38441;52.894;6.040;2023-06-24T13:54:56;4.88;;;2.83;;
52530;SDS011;38441;52.894;6.040;2023-06-24T13:57:22;5.57;;;3.20;;
52530;SDS011;38441;52.894;6.040;2023-06-24T13:59:48;5.10;;;3.33;;
52530;SDS011;38441;52.894;6.040;2023-06-24T14:02:16;6.22;;;3.00;;
52530;SDS011;38441;52.894;6.040;2023-06-24T14:04:52;8.27;;;3.15;;
52530;SDS011;38441;52.894;6.040;2023-06-24T14:07:20;5.53;;;2.92;;
52530;SDS011;38441;52.894;6.040;2023-06-24T14:09:49;5.32;;;2.90;;
52530;SDS011;38441;52.894;6.040;2023-06-24T14:12:15;7.28;;;3.05;;
52530;SDS011;38441;52.894;6.040;2023-06-24T14:14:40;5.65;;;3.35;;
52530;SDS011;38441;52.894;6.040;2023-06-24T14:17:14;6.18;;;3.42;;
52530;SDS011;38441;52.894;6.040;2023-06-24T14:19:41;5.90;;;3.20;;
52530;SDS011;38441;52.894;6.040;2023-06-24T14:22:07;6.43;;;2.92;;
52530;SDS011;38441;52.894;6.040;2023-06-24T14:24:33;5.03;;;3.15;;
52530;SDS011;38441;52.894;6.040;2023-06-24T14:27:03;7.03;;;3.47;;
52530;SDS011;38441;52.894;6.040;2023-06-24T14:29:30;8.57;;;3.50;;
52530;SDS011;38441;52.894;6.040;2023-06-24T14:31:55;5.00;;;2.92;;
52530;SDS011;38441;52.894;6.040;2023-06-24T14:34:21;7.90;;;3.30;;
52530;SDS011;38441;52.894;6.040;2023-06-24T14:36:47;5.85;;;3.17;;
52530;SDS011;38441;52.894;6.040;2023-06-24T14:39:16;6.53;;;3.03;;
52530;SDS011;38441;52.894;6.040;2023-06-24T14:41:47;4.45;;;2.85;;
52530;SDS011;38441;52.894;6.040;2023-06-24T14:44:17;6.97;;;3.35;;
52530;SDS011;38441;52.894;6.040;2023-06-24T14:46:46;5.40;;;2.90;;
52530;SDS011;38441;52.894;6.040;2023-06-24T14:49:11;6.35;;;3.10;;
52530;SDS011;38441;52.894;6.040;2023-06-24T14:51:44;7.00;;;3.08;;
52530;SDS011;38441;52.894;6.040;2023-06-24T14:54:10;5.82;;;2.88;;
52530;SDS011;38441;52.894;6.040;2023-06-24T14:56:36;7.05;;;2.65;;
52530;SDS011;38441;52.894;6.040;2023-06-24T14:59:16;3.63;;;2.30;;
52530;SDS011;38441;52.894;6.040;2023-06-24T15:01:47;9.63;;;3.50;;
52530;SDS011;38441;52.894;6.040;2023-06-24T15:04:35;6.05;;;2.70;;
52530;SDS011;38441;52.894;6.040;2023-06-24T15:07:01;4.75;;;3.17;;
52530;SDS011;38441;52.894;6.040;2023-06-24T15:09:27;6.72;;;3.05;;
52530;SDS011;38441;52.894;6.040;2023-06-24T15:11:53;4.93;;;2.55;;
52530;SDS011;38441;52.894;6.040;2023-06-24T15:14:21;5.35;;;2.70;;
52530;SDS011;38441;52.894;6.040;2023-06-24T15:16:50;6.60;;;2.90;;
52530;SDS011;38441;52.894;6.040;2023-06-24T15:22:20;5.13;;;2.85;;
52530;SDS011;38441;52.894;6.040;2023-06-24T15:25:14;5.60;;;2.40;;
52530;SDS011;38441;52.894;6.040;2023-06-24T15:27:55;5.25;;;2.95;;
52530;SDS011;38441;52.894;6.040;2023-06-24T15:30:24;3.90;;;2.40;;
52530;SDS011;38441;52.894;6.040;2023-06-24T15:32:55;5.20;;;2.92;;
52530;SDS011;38441;52.894;6.040;2023-06-24T15:35:27;4.60;;;2.20;;
52530;SDS011;38441;52.894;6.040;2023-06-24T15:37:52;4.95;;;2.63;;
52530;SDS011;38441;52.894;6.040;2023-06-24T15:40:18;8.45;;;6.20;;
52530;SDS011;38441;52.894;6.040;2023-06-24T15:42:43;7.60;;;2.63;;
52530;SDS011;38441;52.894;6.040;2023-06-24T15:45:09;4.40;;;2.30;;
52530;SDS011;38441;52.894;6.040;2023-06-24T15:47:35;5.97;;;2.95;;
52530;SDS011;38441;52.894;6.040;2023-06-24T15:50:03;9.07;;;2.25;;
52530;SDS011;38441;52.894;6.040;2023-06-24T15:52:29;4.55;;;2.45;;
52530;SDS011;38441;52.894;6.040;2023-06-24T15:54:55;4.68;;;2.85;;
52530;SDS011;38441;52.894;6.040;2023-06-24T15:57:20;6.72;;;2.40;;
52530;SDS011;38441;52.894;6.040;2023-06-24T15:59:46;4.22;;;2.47;;
52530;SDS011;38441;52.894;6.040;2023-06-24T16:02:11;4.72;;;2.60;;
52530;SDS011;38441;52.894;6.040;2023-06-24T16:04:37;5.65;;;2.80;;
52530;SDS011;38441;52.894;6.040;2023-06-24T16:07:03;7.40;;;2.58;;
52530;SDS011;38441;52.894;6.040;2023-06-24T16:09:29;5.43;;;2.63;;
52530;SDS011;38441;52.894;6.040;2023-06-24T16:11:55;3.42;;;2.10;;
52530;SDS011;38441;52.894;6.040;2023-06-24T16:14:21;4.65;;;2.35;;